Time,TemperatureF,DewpointF,PressureIn,WindDirection,WindDirectionDegrees,WindSpeedMPH,WindSpeedGustMPH,Humidity,HourlyPrecipIn,Conditions,Clouds,dailyrainin,SoftwareType,DateUTC
2013-08-21 06:53:00,65.0,62.0,30.17,NNW,345,0.0,0.0,91,0.00,,,0.00,,2013-08-21 10:53:00,
2013-08-21 07:12:00,65.0,63.0,30.17,NNW,345,0.0,0.0,92,0.00,,,0.00,,2013-08-21 11:12:00,
2013-08-21 07:22:00,66.0,64.0,30.17,NNW,345,0.0,0.0,92,0.00,,,0.00,,2013-08-21 11:22:00,
2013-08-21 07:42:00,67.0,65.0,30.17,NNW,345,0.0,0.0,92,0.00,,,0.00,,2013-08-21 11:42:00,
2013-08-21 07:53:00,68.0,65.0,30.18,NNW,345,0.0,0.0,90,0.00,,,0.00,,2013-08-21 11:53:00,
2013-08-21 08:12:00,70.0,66.0,30.18,NNW,345,0.0,0.0,86,0.00,,,0.00,,2013-08-21 12:12:00,
2013-08-21 08:22:00,71.0,66.0,30.18,NNW,345,0.0,0.0,85,0.00,,,0.00,,2013-08-21 12:22:00,
2013-08-21 08:32:00,71.0,66.0,30.18,NNW,345,0.0,0.0,85,0.00,,,0.00,,2013-08-21 12:32:00,
2013-08-21 08:52:00,74.0,66.0,30.18,NNW,345,0.0,0.0,75,0.00,,,0.00,,2013-08-21 12:52:00,
2013-08-21 09:12:00,75.0,66.0,30.18,NNW,345,0.0,0.0,74,0.00,,,0.00,,2013-08-21 13:12:00,
2013-08-21 09:21:00,76.0,65.0,30.17,NNW,345,0.0,0.0,70,0.00,,,0.00,,2013-08-21 13:21:00,
2013-08-21 09:42:00,77.0,67.0,30.17,NNW,345,0.0,0.0,71,0.00,,,0.00,,2013-08-21 13:42:00,
2013-08-21 09:52:00,78.0,66.0,30.17,NNW,345,0.0,0.0,66,0.00,,,0.00,,2013-08-21 13:52:00,
2013-08-21 10:12:00,80.0,66.0,30.18,NNW,345,0.0,1.0,62,0.00,,,0.00,,2013-08-21 14:12:00,
2013-08-21 10:21:00,81.0,66.0,30.18,NNW,345,0.0,1.0,61,0.00,,,0.00,,2013-08-21 14:21:00,
2013-08-21 10:42:00,82.0,67.0,30.17,NNW,345,0.0,1.0,61,0.00,,,0.00,,2013-08-21 14:42:00,
2013-08-21 10:52:00,82.0,66.0,30.17,NNW,345,0.0,1.0,58,0.00,,,0.00,,2013-08-21 14:52:00,
2013-08-21 11:11:00,84.0,66.0,30.17,NNW,345,0.0,1.0,55,0.00,,,0.00,,2013-08-21 15:11:00,
2013-08-21 11:22:00,84.0,64.0,30.17,SSW,213,1.0,4.0,52,0.00,,,0.00,,2013-08-21 15:22:00,
2013-08-21 11:43:00,85.0,65.0,30.17,SSW,209,0.0,1.0,51,0.00,,,0.00,,2013-08-21 15:43:00,
2013-08-21 11:55:00,87.0,65.0,30.16,South,187,0.0,2.0,49,0.00,,,0.00,,2013-08-21 15:55:00,
2013-08-21 12:24:00,88.0,64.0,30.16,SSW,202,0.0,5.0,45,0.00,,,0.00,,2013-08-21 16:24:00,
2013-08-21 12:53:00,89.0,65.0,30.15,SSW,196,0.0,2.0,45,0.00,,,0.00,,2013-08-21 16:53:00,
2013-08-21 13:13:00,89.0,64.0,30.15,SSW,196,0.0,2.0,44,0.00,,,0.00,,2013-08-21 17:13:00,
2013-08-21 13:23:00,89.0,64.0,30.14,SSW,196,0.0,1.0,44,0.00,,,0.00,,2013-08-21 17:23:00,
2013-08-21 13:53:00,89.0,64.0,30.13,SSW,196,0.0,1.0,44,0.00,,,0.00,,2013-08-21 17:53:00,
2013-08-21 14:12:00,91.0,64.0,30.13,SSW,196,0.0,3.0,41,0.00,,,0.00,,2013-08-21 18:12:00,
2013-08-21 14:22:00,91.0,63.0,30.12,SSW,199,0.0,4.0,40,0.00,,,0.00,,2013-08-21 18:22:00,
2013-08-21 14:42:00,92.0,64.0,30.11,SSW,199,1.0,4.0,40,0.00,,,0.00,,2013-08-21 18:42:00,
2013-08-21 14:52:00,92.0,63.0,30.11,SW,215,0.0,5.0,39,0.00,,,0.00,,2013-08-21 18:52:00,
2013-08-21 15:12:00,91.0,62.0,30.10,SW,222,4.0,7.0,38,0.00,,,0.00,,2013-08-21 19:12:00,
2013-08-21 15:22:00,91.0,63.0,30.10,SSW,211,1.0,6.0,39,0.00,,,0.00,,2013-08-21 19:22:00,
2013-08-21 15:52:00,89.0,63.0,30.09,SSW,212,0.0,3.0,42,0.00,,,0.00,,2013-08-21 19:52:00,
2013-08-21 16:11:00,89.0,62.0,30.09,SSW,212,0.0,1.0,41,0.00,,,0.00,,2013-08-21 20:11:00,
2013-08-21 16:22:00,89.0,63.0,30.09,SSW,207,1.0,3.0,42,0.00,,,0.00,,2013-08-21 20:22:00,
2013-08-21 16:52:00,89.0,63.0,30.08,SSW,211,0.0,1.0,42,0.00,,,0.00,,2013-08-21 20:52:00,
2013-08-21 17:02:00,89.0,63.0,30.08,SSW,211,0.0,1.0,42,0.00,,,0.00,,2013-08-21 21:02:00,
2013-08-21 17:12:00,89.0,63.0,30.08,SSW,211,0.0,1.0,42,0.00,,,0.00,,2013-08-21 21:12:00,
2013-08-21 17:22:00,89.0,63.0,30.08,SSW,211,0.0,1.0,42,0.00,,,0.00,,2013-08-21 21:22:00,
2013-08-21 18:53:00,86.0,65.0,30.06,SSW,212,0.0,3.0,49,0.00,,,0.00,,2013-08-21 22:53:00,
2013-08-21 19:04:00,86.0,65.0,30.06,SSW,212,0.0,3.0,49,0.00,,,0.00,,2013-08-21 23:04:00,
2013-08-21 19:13:00,86.0,65.0,30.06,SSW,212,0.0,3.0,49,0.00,,,0.00,,2013-08-21 23:13:00,
2013-08-21 19:22:00,86.0,65.0,30.06,SSW,212,0.0,3.0,49,0.00,,,0.00,,2013-08-21 23:22:00,